Time;durP1;ratioP1;P1;durP2;ratioP2;P2;SDS_P1;SDS_P2;PMS_P1;PMS_P2;Temp;Humidity;BMP_temperature;BMP_pressure;BME280_temperature;BME280_humidity;BME280_pressure;Samples;Min_cycle;Max_cycle;Signal;HPM_P1;HPM_P2
2023/09/19 03:02:24;;;;;;;2.20;1.70;;;20.00;94.60;;;;;;5048702;28;20048;-84
2023/09/19 03:04:51;;;;;;;2.95;1.65;;;20.00;94.60;;;;;;5027278;28;20022;-84
2023/09/19 03:07:17;;;;;;;5.30;2.00;;;20.00;94.60;;;;;;5038615;28;20023;-84
2023/09/19 03:09:43;;;;;;;5.80;1.83;;;20.10;94.70;;;;;;5041340;28;20028;-84
2023/09/19 03:12:08;;;;;;;7.18;2.20;;;20.00;94.60;;;;;;5038939;28;20025;-84
2023/09/19 03:14:35;;;;;;;4.43;1.73;;;20.00;94.60;;;;;;5023664;28;20409;-84
2023/09/19 03:17:05;;;;;;;7.93;2.00;;;20.00;94.60;;;;;;5025273;28;20029;-85
2023/09/19 03:19:33;;;;;;;5.40;1.90;;;20.00;94.60;;;;;;5028720;28;20033;-85
2023/09/19 03:21:59;;;;;;;2.58;1.50;;;20.10;94.70;;;;;;5030027;28;20017;-85
2023/09/19 03:24:25;;;;;;;7.07;2.00;;;20.00;94.70;;;;;;5020584;28;20029;-84
2023/09/19 03:26:52;;;;;;;14.48;2.47;;;20.00;94.70;;;;;;5026211;28;20014;-84
2023/09/19 03:29:18;;;;;;;3.78;2.10;;;20.00;94.70;;;;;;5028529;28;20037;-84
2023/09/19 03:31:43;;;;;;;5.07;1.95;;;20.00;94.70;;;;;;5023896;28;20386;-84
2023/09/19 03:34:09;;;;;;;3.58;1.83;;;20.00;94.70;;;;;;5015696;28;20438;-84
2023/09/19 03:36:35;;;;;;;6.30;2.00;;;20.00;94.60;;;;;;5025922;28;20074;-84
2023/09/19 03:39:04;;;;;;;5.25;1.85;;;20.00;94.60;;;;;;5026896;28;20018;-83
2023/09/19 03:41:31;;;;;;;7.17;2.00;;;20.00;94.60;;;;;;5018870;28;20489;-83
2023/09/19 03:43:57;;;;;;;3.22;1.85;;;20.00;94.60;;;;;;5027711;28;20075;-84
2023/09/19 03:46:22;;;;;;;9.23;2.60;;;20.00;94.60;;;;;;5020106;28;20018;-84
2023/09/19 03:48:48;;;;;;;3.35;1.83;;;20.00;94.60;;;;;;5037535;28;20071;-83
2023/09/19 03:51:13;;;;;;;4.78;2.00;;;20.00;94.60;;;;;;5027779;28;20017;-84
2023/09/19 03:53:39;;;;;;;5.75;2.08;;;20.00;94.60;;;;;;5040430;28;20501;-84
2023/09/19 03:56:05;;;;;;;5.63;2.00;;;20.00;95.00;;;;;;5022637;28;20475;-84
2023/09/19 03:58:30;;;;;;;3.70;1.70;;;20.00;94.60;;;;;;5041082;28;20029;-84
2023/09/19 04:00:57;;;;;;;4.38;2.17;;;20.00;94.60;;;;;;5029183;28;20108;-84
2023/09/19 04:03:23;;;;;;;6.80;1.88;;;20.00;94.60;;;;;;5039150;28;20465;-84
2023/09/19 04:05:49;;;;;;;4.20;2.30;;;20.00;95.00;;;;;;5045509;28;20033;-84
2023/09/19 04:08:14;;;;;;;5.07;1.75;;;20.00;94.60;;;;;;5051184;28;20035;-84
2023/09/19 04:10:44;;;;;;;4.13;2.13;;;20.00;94.60;;;;;;5048781;28;20610;-84
2023/09/19 04:13:10;;;;;;;10.35;1.65;;;20.00;94.90;;;;;;5066483;28;20032;-84
2023/09/19 04:15:37;;;;;;;3.80;2.00;;;20.00;94.60;;;;;;5057096;28;20025;-84
2023/09/19 04:18:03;;;;;;;11.20;1.67;;;20.00;94.60;;;;;;5064825;28;20024;-84
2023/09/19 04:20:29;;;;;;;2.00;1.80;;;20.00;94.60;;;;;;5066166;28;20028;-84
2023/09/19 04:22:55;;;;;;;3.97;2.03;;;20.00;94.90;;;;;;5057378;28;20398;-84
2023/09/19 04:25:21;;;;;;;2.65;1.70;;;20.00;94.60;;;;;;5064552;28;20024;-84
2023/09/19 04:27:46;;;;;;;7.88;1.83;;;20.00;94.60;;;;;;5062387;28;20025;-84
2023/09/19 04:30:14;;;;;;;7.97;2.00;;;20.00;94.60;;;;;;5043916;28;20017;-83
2023/09/19 04:32:40;;;;;;;5.63;1.50;;;20.00;94.60;;;;;;5042499;28;20032;-84
2023/09/19 04:35:08;;;;;;;2.63;1.50;;;20.00;94.60;;;;;;5050645;28;20036;-84
2023/09/19 04:37:38;;;;;;;4.60;1.90;;;20.00;94.60;;;;;;5050826;28;20032;-84
2023/09/19 04:40:06;;;;;;;7.07;2.20;;;20.00;94.60;;;;;;5045459;28;20063;-85
2023/09/19 04:42:31;;;;;;;4.05;1.70;;;20.00;94.60;;;;;;5046339;28;20082;-84
2023/09/19 04:44:59;;;;;;;3.33;1.40;;;20.00;94.60;;;;;;5049290;28;20408;-85
2023/09/19 04:47:26;;;;;;;2.83;1.58;;;20.00;94.60;;;;;;5048439;28;20021;-84
2023/09/19 04:49:51;;;;;;;6.22;1.23;;;20.00;94.60;;;;;;5040549;28;20024;-85
2023/09/19 04:52:17;;;;;;;4.15;1.35;;;20.00;94.60;;;;;;5054962;28;20484;-84
2023/09/19 04:54:43;;;;;;;1.85;1.23;;;20.00;94.60;;;;;;5062896;28;20024;-84
2023/09/19 04:57:08;;;;;;;2.47;1.67;;;20.00;94.60;;;;;;5048409;28;20029;-84
2023/09/19 04:59:34;;;;;;;3.85;1.60;;;20.00;94.60;;;;;;5062536;28;20028;-85
2023/09/19 05:01:59;;;;;;;2.25;1.30;;;20.00;94.60;;;;;;5044708;28;20470;-84
2023/09/19 05:04:25;;;;;;;5.93;1.52;;;20.00;94.60;;;;;;5029188;28;20460;-84
2023/09/19 05:06:51;;;;;;;1.77;1.50;;;20.00;94.60;;;;;;5033721;28;20024;-84
2023/09/19 05:09:19;;;;;;;3.78;1.20;;;20.00;94.60;;;;;;5031843;28;20079;-83
2023/09/19 05:11:46;;;;;;;6.18;1.40;;;20.00;94.60;;;;;;5027026;28;20018;-85
2023/09/19 05:14:11;;;;;;;7.82;1.65;;;20.00;94.90;;;;;;5045046;28;20474;-84
2023/09/19 05:16:37;;;;;;;3.83;1.50;;;20.00;94.50;;;;;;5027484;28;20021;-84
2023/09/19 05:19:03;;;;;;;4.78;1.63;;;20.00;94.50;;;;;;5045301;28;20024;-85
2023/09/19 05:21:33;;;;;;;1.70;1.38;;;20.00;94.50;;;;;;5049885;28;20017;-84
2023/09/19 05:23:58;;;;;;;2.40;1.40;;;20.00;94.50;;;;;;5031250;28;20497;-84
2023/09/19 05:26:24;;;;;;;2.88;1.50;;;20.00;94.50;;;;;;5029453;28;20036;-85
2023/09/19 05:28:53;;;;;;;2.50;1.42;;;20.00;94.50;;;;;;5040609;28;20024;-84
2023/09/19 05:31:18;;;;;;;4.90;1.30;;;20.00;94.50;;;;;;5030016;28;20029;-84
2023/09/19 05:33:44;;;;;;;2.97;1.35;;;20.00;94.50;;;;;;5029802;28;20677;-84
2023/09/19 05:36:11;;;;;;;1.45;1.20;;;20.00;94.50;;;;;;5024663;28;20035;-84
2023/09/19 05:38:40;;;;;;;4.57;1.48;;;19.90;94.50;;;;;;5021690;28;20560;-84
2023/09/19 05:41:06;;;;;;;2.00;1.40;;;20.00;94.50;;;;;;5033255;28;20035;-84
2023/09/19 05:43:32;;;;;;;5.82;1.60;;;20.00;94.50;;;;;;5031496;28;20025;-85
2023/09/19 05:46:00;;;;;;;4.18;1.60;;;20.00;94.50;;;;;;5040507;28;20016;-84
2023/09/19 05:48:25;;;;;;;4.63;1.40;;;20.00;94.50;;;;;;5025787;28;20014;-84
2023/09/19 05:50:51;;;;;;;4.40;1.58;;;20.00;94.50;;;;;;5030020;28;20024;-84
2023/09/19 05:53:18;;;;;;;6.57;1.85;;;19.90;94.50;;;;;;5033584;28;20036;-84
2023/09/19 05:55:44;;;;;;;2.55;1.45;;;20.00;94.50;;;;;;5028056;28;20040;-84
2023/09/19 05:58:10;;;;;;;2.90;1.63;;;19.90;94.50;;;;;;5043742;28;20490;-83
2023/09/19 06:00:36;;;;;;;3.20;1.33;;;20.00;94.50;;;;;;5029505;28;20025;-85
2023/09/19 06:03:02;;;;;;;5.00;1.25;;;20.00;94.50;;;;;;5052885;28;20075;-84
2023/09/19 06:05:30;;;;;;;8.73;1.67;;;19.90;94.50;;;;;;5039371;28;20013;-84
2023/09/19 06:07:55;;;;;;;5.93;1.45;;;20.00;94.50;;;;;;5046824;28;20529;-85
2023/09/19 06:10:22;;;;;;;3.50;1.27;;;19.90;94.50;;;;;;5039691;28;20120;-84
2023/09/19 06:12:48;;;;;;;2.78;1.38;;;20.00;94.50;;;;;;5042732;28;20385;-84
2023/09/19 06:15:16;;;;;;;2.95;1.40;;;19.90;94.50;;;;;;5046449;28;20036;-84
2023/09/19 06:17:43;;;;;;;2.55;1.38;;;19.90;94.50;;;;;;5043911;28;20021;-84
2023/09/19 06:20:14;;;;;;;3.85;1.58;;;20.00;94.50;;;;;;5061227;28;20021;-84
2023/09/19 06:22:45;;;;;;;2.80;1.35;;;20.00;94.50;;;;;;5056386;28;20024;-84
2023/09/19 06:25:22;;;;;;;7.90;1.65;;;20.00;94.50;;;;;;5052149;28;20024;-84
2023/09/19 06:27:53;;;;;;;7.00;1.33;;;20.00;94.50;;;;;;5063122;28;20059;-83
2023/09/19 06:30:20;;;;;;;6.00;1.42;;;20.00;94.50;;;;;;5049534;28;20017;-83
2023/09/19 06:32:49;;;;;;;6.03;1.10;;;20.00;94.50;;;;;;5061474;28;20501;-84
2023/09/19 06:35:16;;;;;;;2.40;1.30;;;20.00;94.50;;;;;;5058854;28;20020;-85
2023/09/19 06:37:43;;;;;;;3.05;1.48;;;20.00;94.80;;;;;;5041793;28;20020;-85
2023/09/19 06:40:14;;;;;;;2.05;1.02;;;20.00;94.50;;;;;;5060014;28;20159;-84
2023/09/19 06:42:48;;;;;;;5.07;1.40;;;20.00;94.50;;;;;;5037595;28;20024;-84
2023/09/19 06:45:18;;;;;;;4.28;1.05;;;20.00;94.50;;;;;;5046332;28;20044;-84
2023/09/19 06:47:57;;;;;;;6.28;1.42;;;20.00;94.50;;;;;;5043380;28;20025;-84
2023/09/19 06:50:23;;;;;;;1.40;1.17;;;20.00;94.50;;;;;;5047420;28;20394;-86
2023/09/19 06:52:53;;;;;;;1.30;1.05;;;20.00;94.50;;;;;;5043736;28;20025;-83
2023/09/19 06:55:20;;;;;;;2.13;1.10;;;20.00;94.50;;;;;;5042986;28;20040;-85
2023/09/19 06:57:47;;;;;;;1.80;1.10;;;20.00;94.50;;;;;;5047971;28;20717;-84
2023/09/19 07:00:21;;;;;;;1.33;1.02;;;20.00;94.50;;;;;;5059949;28;20101;-84
2023/09/19 07:03:08;;;;;;;4.07;1.30;;;20.00;94.50;;;;;;5033305;28;20045;-85
2023/09/19 07:05:38;;;;;;;5.07;1.40;;;20.00;94.50;;;;;;5034308;28;20090;-84
2023/09/19 07:08:09;;;;;;;4.30;1.20;;;20.00;94.50;;;;;;5031165;28;20532;-83
2023/09/19 07:10:35;;;;;;;1.33;1.10;;;20.00;94.50;;;;;;5038637;28;20414;-85
2023/09/19 07:13:03;;;;;;;4.28;1.15;;;20.00;94.50;;;;;;5035370;28;20025;-84
2023/09/19 07:15:38;;;;;;;3.30;0.70;;;20.00;94.50;;;;;;5040052;28;20024;-84
2023/09/19 07:18:05;;;;;;;1.52;0.98;;;20.00;94.50;;;;;;5042361;28;20366;-84
2023/09/19 07:20:32;;;;;;;4.10;1.25;;;20.00;94.50;;;;;;5041422;28;20362;-84
2023/09/19 07:23:01;;;;;;;1.70;0.85;;;20.00;94.50;;;;;;5041101;28;20021;-84
2023/09/19 07:25:30;;;;;;;2.47;1.08;;;20.00;94.50;;;;;;5048169;28;20151;-84
2023/09/19 07:27:59;;;;;;;1.15;0.90;;;20.00;94.50;;;;;;5049436;28;20021;-84
2023/09/19 07:30:26;;;;;;;2.80;1.45;;;20.00;94.50;;;;;;5039522;28;20106;-83
2023/09/19 07:32:52;;;;;;;2.05;1.10;;;20.00;94.50;;;;;;5047766;28;20437;-84
2023/09/19 07:35:19;;;;;;;2.67;1.10;;;20.00;94.50;;;;;;5039603;28;20033;-83
2023/09/19 07:37:49;;;;;;;6.05;1.40;;;20.00;94.80;;;;;;5048570;28;20025;-84
2023/09/19 07:40:23;;;;;;;4.87;1.10;;;20.00;94.50;;;;;;5038369;28;20523;-83
2023/09/19 07:42:50;;;;;;;3.45;1.15;;;20.00;94.50;;;;;;5044628;28;20028;-83
2023/09/19 07:45:17;;;;;;;2.33;1.17;;;20.00;94.50;;;;;;5039919;28;20075;-84
2023/09/19 07:47:50;;;;;;;4.57;1.20;;;20.00;94.50;;;;;;5047984;28;20021;-84
2023/09/19 07:50:20;;;;;;;2.45;0.95;;;20.00;94.50;;;;;;5047276;28;20025;-83
2023/09/19 07:52:47;;;;;;;2.85;1.25;;;20.00;94.50;;;;;;5046007;28;20040;-83
2023/09/19 07:55:16;;;;;;;1.88;1.10;;;20.00;94.50;;;;;;5042093;28;20082;-84
2023/09/19 07:57:43;;;;;;;1.20;0.90;;;20.00;94.50;;;;;;5051156;28;20075;-84
2023/09/19 08:00:12;;;;;;;4.20;1.40;;;20.00;94.50;;;;;;5048067;28;21112;-83
2023/09/19 08:02:39;;;;;;;1.98;1.10;;;20.00;94.50;;;;;;5042707;28;20425;-84
2023/09/19 08:05:06;;;;;;;3.67;1.13;;;20.00;94.50;;;;;;5042247;28;20516;-83
2023/09/19 08:07:33;;;;;;;2.45;1.00;;;20.00;94.50;;;;;;5041469;28;20478;-83
2023/09/19 08:09:58;;;;;;;5.05;1.00;;;20.00;94.50;;;;;;5042055;28;20383;-84
2023/09/19 08:12:24;;;;;;;1.98;1.00;;;20.00;94.50;;;;;;5046606;28;20026;-83
2023/09/19 08:14:50;;;;;;;5.93;1.00;;;20.00;94.50;;;;;;5041979;28;20035;-84
2023/09/19 08:17:16;;;;;;;3.00;1.13;;;20.00;94.50;;;;;;5044656;28;20108;-83
2023/09/19 08:19:44;;;;;;;1.17;1.08;;;20.00;94.50;;;;;;5043029;28;20029;-84
2023/09/19 08:22:10;;;;;;;0.93;0.93;;;20.30;94.50;;;;;;5045725;28;20064;-83
2023/09/19 08:24:36;;;;;;;1.40;1.08;;;20.00;94.50;;;;;;5044507;28;20028;-84
2023/09/19 08:27:04;;;;;;;1.38;0.65;;;20.00;94.40;;;;;;5041110;28;20032;-83
2023/09/19 08:29:30;;;;;;;3.92;0.90;;;20.00;94.40;;;;;;5045219;28;20031;-84
2023/09/19 08:31:59;;;;;;;1.67;0.88;;;20.10;94.50;;;;;;5040267;28;20495;-84
2023/09/19 08:34:26;;;;;;;2.10;0.75;;;20.00;94.40;;;;;;5045764;28;20515;-84
2023/09/19 08:36:58;;;;;;;1.85;0.98;;;20.00;94.40;;;;;;5036192;28;20029;-84
2023/09/19 08:39:25;;;;;;;3.92;0.82;;;20.00;94.40;;;;;;5046598;28;20018;-84
2023/09/19 08:42:00;;;;;;;5.07;0.80;;;20.10;94.50;;;;;;5048309;28;20029;-84
2023/09/19 08:44:33;;;;;;;2.03;0.80;;;20.00;94.40;;;;;;5049113;28;20475;-84
2023/09/19 08:47:11;;;;;;;5.22;0.88;;;20.10;94.50;;;;;;5042172;28;20025;-84
2023/09/19 08:49:43;;;;;;;1.75;0.75;;;20.10;94.50;;;;;;5046512;28;20555;-83
2023/09/19 08:52:36;;;;;;;0.80;0.77;;;20.00;94.40;;;;;;5039906;28;20082;-84
2023/09/19 08:55:10;;;;;;;0.60;0.60;;;20.10;94.50;;;;;;5033761;28;20042;-83
2023/09/19 08:57:41;;;;;;;0.75;0.70;;;20.10;94.50;;;;;;5040869;28;20029;-83
2023/09/19 09:00:11;;;;;;;1.73;0.90;;;20.00;94.40;;;;;;5047013;28;20086;-83
2023/09/19 09:02:42;;;;;;;1.23;0.88;;;20.10;94.50;;;;;;5044183;28;20189;-84
2023/09/19 09:05:10;;;;;;;0.75;0.75;;;20.10;94.50;;;;;;5050830;28;20017;-83
2023/09/19 09:07:40;;;;;;;1.83;0.93;;;20.10;94.40;;;;;;5037513;28;20032;-83
2023/09/19 09:10:08;;;;;;;1.90;1.00;;;20.10;94.40;;;;;;5034886;28;20029;-84
2023/09/19 09:12:40;;;;;;;1.13;0.80;;;20.10;94.40;;;;;;5046568;28;20032;-83
2023/09/19 09:15:11;;;;;;;1.15;0.93;;;20.10;94.40;;;;;;5043021;28;20866;-83
2023/09/19 09:17:37;;;;;;;0.77;0.77;;;20.10;94.40;;;;;;5037633;28;20028;-84
2023/09/19 09:20:05;;;;;;;5.00;0.77;;;20.10;94.40;;;;;;5043108;28;20033;-84
2023/09/19 09:22:31;;;;;;;0.88;0.70;;;20.10;94.40;;;;;;5046195;28;20021;-84
2023/09/19 09:24:58;;;;;;;1.75;1.08;;;20.10;94.40;;;;;;5046112;28;20032;-84
2023/09/19 09:27:24;;;;;;;2.70;1.08;;;20.10;94.80;;;;;;5042208;28;20017;-84
2023/09/19 09:29:51;;;;;;;1.55;0.90;;;20.10;94.40;;;;;;5041888;28;20036;-84
2023/09/19 09:32:24;;;;;;;3.47;1.55;;;20.10;94.40;;;;;;5047382;28;20029;-84
2023/09/19 09:34:54;;;;;;;1.23;0.80;;;20.10;94.40;;;;;;5044889;28;20115;-84
2023/09/19 09:37:21;;;;;;;0.50;0.50;;;20.10;94.40;;;;;;5052992;28;20105;-83
2023/09/19 09:39:56;;;;;;;1.05;0.88;;;20.10;94.40;;;;;;5046422;28;20033;-84
2023/09/19 09:42:35;;;;;;;3.35;0.98;;;20.10;94.40;;;;;;5049179;28;20029;-84
2023/09/19 09:45:37;;;;;;;0.82;0.70;;;20.10;94.40;;;;;;5041102;28;20043;-84
2023/09/19 09:48:03;;;;;;;4.18;1.00;;;20.10;94.40;;;;;;5040607;28;20026;-84
2023/09/19 09:50:51;;;;;;;1.30;0.90;;;20.10;94.40;;;;;;5053839;28;20114;-84
2023/09/19 09:53:36;;;;;;;1.55;0.77;;;20.10;94.40;;;;;;5045122;28;20394;-85
2023/09/19 09:56:09;;;;;;;1.35;1.00;;;20.10;94.30;;;;;;5039160;28;20033;-84
2023/09/19 09:58:49;;;;;;;2.13;0.98;;;20.10;94.30;;;;;;5045408;28;20024;-84
2023/09/19 10:01:16;;;;;;;2.20;1.17;;;20.10;94.30;;;;;;5044916;28;20024;-84
2023/09/19 10:03:49;;;;;;;2.13;0.80;;;20.10;94.30;;;;;;5042397;28;20600;-85
2023/09/19 10:06:27;;;;;;;1.45;1.00;;;20.10;94.30;;;;;;5061674;28;20041;-84
2023/09/19 10:09:10;;;;;;;1.17;0.70;;;20.10;94.30;;;;;;5050098;28;20017;-84
2023/09/19 10:12:09;;;;;;;0.88;0.63;;;20.10;94.30;;;;;;5052076;28;20035;-84
2023/09/19 10:14:38;;;;;;;1.45;1.20;;;20.10;94.30;;;;;;5039013;28;20029;-84
2023/09/19 10:17:06;;;;;;;0.82;0.80;;;20.10;94.30;;;;;;5041575;28;20021;-85
2023/09/19 10:19:46;;;;;;;0.93;0.70;;;20.10;94.30;;;;;;5041541;28;20414;-84
2023/09/19 10:22:14;;;;;;;1.45;1.00;;;20.10;94.30;;;;;;5036283;28;20032;-84
2023/09/19 10:24:41;;;;;;;2.20;1.13;;;20.10;94.30;;;;;;5044115;28;20025;-84
2023/09/19 10:27:10;;;;;;;1.27;0.70;;;20.10;94.30;;;;;;5048323;28;20033;-85
2023/09/19 10:29:39;;;;;;;1.98;0.90;;;20.10;94.20;;;;;;5047541;28;20025;-85
2023/09/19 10:32:06;;;;;;;0.95;0.70;;;20.10;94.20;;;;;;5037224;28;20112;-84
2023/09/19 10:34:36;;;;;;;0.73;0.70;;;20.20;94.40;;;;;;5045703;28;20032;-85
2023/09/19 10:37:05;;;;;;;1.17;1.08;;;20.10;94.20;;;;;;5041067;28;20062;-84
2023/09/19 10:39:33;;;;;;;3.67;1.13;;;20.20;94.20;;;;;;5044072;28;20021;-84
2023/09/19 10:42:08;;;;;;;4.53;0.77;;;20.20;94.20;;;;;;5045116;28;20024;-84
2023/09/19 10:44:42;;;;;;;1.27;0.90;;;20.20;94.20;;;;;;5036815;28;20067;-85
2023/09/19 10:47:08;;;;;;;3.20;1.05;;;20.10;94.10;;;;;;5038064;28;20017;-84
2023/09/19 10:49:34;;;;;;;2.53;1.00;;;20.20;94.20;;;;;;5043504;28;20037;-83
2023/09/19 10:52:01;;;;;;;1.65;0.98;;;20.20;94.20;;;;;;5045093;28;20020;-85
2023/09/19 10:54:34;;;;;;;3.00;1.08;;;20.20;94.20;;;;;;5039372;28;20036;-85
2023/09/19 10:57:05;;;;;;;1.00;0.77;;;20.20;94.10;;;;;;5046559;28;20049;-82
2023/09/19 10:59:34;;;;;;;2.10;0.90;;;20.20;94.10;;;;;;5051953;28;20071;-84
2023/09/19 11:02:15;;;;;;;4.93;0.75;;;20.20;94.10;;;;;;5039778;28;20042;-85
2023/09/19 11:04:40;;;;;;;4.22;0.82;;;20.20;94.10;;;;;;5029357;28;20029;-84
2023/09/19 11:07:16;;;;;;;1.00;0.70;;;20.20;94.10;;;;;;5038969;28;20025;-84
2023/09/19 11:09:57;;;;;;;2.45;1.25;;;20.20;94.10;;;;;;5035040;28;20120;-84
2023/09/19 11:12:35;;;;;;;1.02;0.75;;;20.20;94.10;;;;;;5043870;28;20036;-83
2023/09/19 11:15:33;;;;;;;2.55;1.05;;;20.20;94.40;;;;;;5036808;28;20025;-84
2023/09/19 11:17:59;;;;;;;2.80;1.17;;;20.20;94.00;;;;;;5034066;28;20040;-85
2023/09/19 11:20:26;;;;;;;1.23;1.00;;;20.20;94.00;;;;;;5030791;28;20512;-83
2023/09/19 11:25:29;;;;;;;3.40;1.17;;;20.20;94.00;;;;;;5048779;28;20078;-84
2023/09/19 11:28:17;;;;;;;3.25;0.98;;;20.20;94.00;;;;;;5023528;28;20025;-83
2023/09/19 11:30:50;;;;;;;2.47;1.25;;;20.20;94.00;;;;;;5021925;28;20029;-82
2023/09/19 11:33:41;;;;;;;2.90;1.08;;;20.20;94.00;;;;;;5025994;28;20021;-84
2023/09/19 11:36:24;;;;;;;2.30;1.10;;;20.20;94.00;;;;;;5028164;28;20053;-84
2023/09/19 11:38:50;;;;;;;1.05;1.05;;;20.20;94.00;;;;;;5030260;28;20395;-83
2023/09/19 11:41:31;;;;;;;1.17;0.80;;;20.20;94.00;;;;;;5028416;28;20029;-83
2023/09/19 11:44:04;;;;;;;1.30;0.90;;;20.30;94.00;;;;;;5025325;28;20098;-83
2023/09/19 11:46:31;;;;;;;1.88;0.95;;;20.30;94.00;;;;;;5022333;28;20026;-83
2023/09/19 11:49:15;;;;;;;1.35;1.15;;;20.20;94.00;;;;;;5036392;28;20048;-83
2023/09/19 11:51:45;;;;;;;1.35;0.90;;;20.30;94.00;;;;;;5025963;28;20037;-83
2023/09/19 11:54:18;;;;;;;3.22;1.02;;;20.30;94.00;;;;;;5026258;28;20026;-84
2023/09/19 11:56:45;;;;;;;2.30;1.27;;;20.30;94.00;;;;;;5028017;28;20393;-83
2023/09/19 11:59:12;;;;;;;1.58;1.05;;;20.30;94.00;;;;;;5023556;28;20538;-83
2023/09/19 12:01:50;;;;;;;5.72;0.95;;;20.30;94.00;;;;;;5030269;28;20029;-83
2023/09/19 12:04:18;;;;;;;2.22;0.82;;;20.30;94.00;;;;;;5042182;28;20093;-83
2023/09/19 12:06:56;;;;;;;3.22;1.10;;;20.30;94.00;;;;;;5042194;28;20055;-82
2023/09/19 12:09:22;;;;;;;3.88;1.40;;;20.30;94.00;;;;;;5057259;28;20139;-83
2023/09/19 12:11:49;;;;;;;1.90;0.88;;;20.30;94.00;;;;;;5065997;28;20028;-83
2023/09/19 12:14:26;;;;;;;2.15;0.80;;;20.30;93.90;;;;;;5067357;28;20025;-83
2023/09/19 12:16:56;;;;;;;2.83;1.00;;;20.30;93.90;;;;;;5052155;28;21224;-83
2023/09/19 12:19:23;;;;;;;3.33;1.00;;;20.30;93.90;;;;;;5044145;28;20032;-83
2023/09/19 12:21:59;;;;;;;1.23;0.90;;;20.30;93.90;;;;;;5062609;28;20028;-83
2023/09/19 12:24:29;;;;;;;2.78;1.10;;;20.30;93.90;;;;;;5042046;28;20040;-83
2023/09/19 12:27:04;;;;;;;2.30;1.17;;;20.30;93.90;;;;;;5045703;28;20474;-84
2023/09/19 12:29:31;;;;;;;1.10;1.00;;;20.30;93.80;;;;;;5049568;28;20111;-83
2023/09/19 12:31:58;;;;;;;1.20;1.10;;;20.30;93.80;;;;;;5053712;28;20020;-83
2023/09/19 12:34:28;;;;;;;1.48;1.13;;;20.30;93.80;;;;;;5042611;28;20032;-84
2023/09/19 12:37:15;;;;;;;1.02;0.80;;;20.30;93.80;;;;;;5064620;28;20104;-83
2023/09/19 12:39:52;;;;;;;1.67;1.15;;;20.30;93.80;;;;;;5052730;28;20033;-81
2023/09/19 12:42:21;;;;;;;1.05;0.90;;;20.30;93.80;;;;;;5050364;28;20082;-84
2023/09/19 12:44:48;;;;;;;2.55;1.23;;;20.30;93.80;;;;;;5066866;28;20485;-83
2023/09/19 12:47:23;;;;;;;1.75;1.17;;;20.30;93.80;;;;;;5041311;28;20035;-82
2023/09/19 12:50:13;;;;;;;1.15;0.70;;;20.30;94.20;;;;;;5063246;28;20037;-83
2023/09/19 12:52:43;;;;;;;2.60;1.27;;;20.30;93.90;;;;;;5065683;28;20020;-84
2023/09/19 12:55:26;;;;;;;1.20;1.00;;;20.30;93.80;;;;;;5051966;28;20032;-85
2023/09/19 12:58:15;;;;;;;4.47;1.15;;;20.30;93.80;;;;;;5054533;28;20032;-84
2023/09/19 13:00:45;;;;;;;2.20;1.20;;;20.30;93.80;;;;;;5062731;28;20032;-84
2023/09/19 13:03:24;;;;;;;1.58;1.00;;;20.30;93.80;;;;;;5049213;28;20079;-84
2023/09/19 13:06:02;;;;;;;3.80;1.27;;;20.30;93.70;;;;;;5052704;28;20036;-84
2023/09/19 13:09:08;;;;;;;1.30;1.00;;;20.30;93.70;;;;;;5049377;28;20116;-83
2023/09/19 13:11:40;;;;;;;7.13;1.20;;;20.40;93.70;;;;;;5039881;28;20030;-85
2023/09/19 13:14:22;;;;;;;2.20;1.05;;;20.40;93.70;;;;;;5044916;28;20040;-86
2023/09/19 13:17:15;;;;;;;2.80;1.35;;;20.40;93.70;;;;;;5041558;28;20043;-84
2023/09/19 13:19:57;;;;;;;1.42;1.20;;;20.40;93.70;;;;;;5043150;28;20137;-82
2023/09/19 13:22:58;;;;;;;3.03;1.27;;;20.40;93.70;;;;;;5046374;28;20021;-84
2023/09/19 13:25:24;;;;;;;1.42;1.02;;;20.40;93.60;;;;;;5039092;28;20053;-84
2023/09/19 13:27:52;;;;;;;2.45;1.30;;;20.40;93.60;;;;;;5047223;28;20801;-83
2023/09/19 13:30:18;;;;;;;2.22;1.02;;;20.40;93.60;;;;;;5041880;28;20483;-83
2023/09/19 13:32:46;;;;;;;5.80;1.00;;;20.40;93.60;;;;;;5036259;28;20052;-83
2023/09/19 13:35:13;;;;;;;1.63;1.23;;;20.40;93.60;;;;;;5038292;28;20023;-83
2023/09/19 13:37:44;;;;;;;1.95;0.80;;;20.40;93.60;;;;;;5036687;28;20025;-82
2023/09/19 13:40:11;;;;;;;1.67;1.13;;;20.40;93.60;;;;;;5040976;28;20069;-83
2023/09/19 13:42:37;;;;;;;1.45;0.98;;;20.40;93.50;;;;;;5040939;28;20067;-83
2023/09/19 13:45:07;;;;;;;7.88;1.08;;;20.30;93.40;;;;;;5042167;28;20092;-84
2023/09/19 13:47:33;;;;;;;3.35;1.27;;;20.40;93.40;;;;;;5054331;28;20086;-82
2023/09/19 13:50:00;;;;;;;2.53;0.95;;;20.40;93.30;;;;;;5045932;28;20440;-84
2023/09/19 13:52:28;;;;;;;1.73;1.20;;;20.40;93.30;;;;;;5042734;28;20467;-85
2023/09/19 13:54:56;;;;;;;1.65;1.20;;;20.40;93.30;;;;;;5038553;28;20021;-83
2023/09/19 13:57:25;;;;;;;1.85;1.15;;;20.40;93.30;;;;;;5040080;28;20029;-84
2023/09/19 13:59:52;;;;;;;2.75;1.25;;;20.40;93.60;;;;;;5042035;28;20032;-83
2023/09/19 14:02:22;;;;;;;2.70;1.13;;;20.40;93.20;;;;;;5039248;28;20025;-84
2023/09/19 14:04:49;;;;;;;4.13;1.45;;;20.30;93.20;;;;;;5030311;28;20160;-82
2023/09/19 14:07:18;;;;;;;2.45;1.40;;;20.30;93.10;;;;;;5039519;28;20175;-82
2023/09/19 14:09:45;;;;;;;1.65;1.17;;;20.40;93.10;;;;;;5035696;28;20058;-82
2023/09/19 14:12:11;;;;;;;2.63;1.10;;;20.30;93.10;;;;;;5043841;28;20021;-83
2023/09/19 14:14:36;;;;;;;2.13;1.20;;;20.30;93.00;;;;;;5015862;28;20021;-84
2023/09/19 14:17:04;;;;;;;2.83;1.10;;;20.30;92.90;;;;;;5017422;28;20045;-85
2023/09/19 14:19:30;;;;;;;1.20;1.10;;;20.30;92.90;;;;;;5025744;28;20028;-83
2023/09/19 14:21:55;;;;;;;1.20;0.70;;;20.30;92.90;;;;;;5026152;28;20533;-84
2023/09/19 14:24:22;;;;;;;3.15;1.20;;;20.30;92.90;;;;;;5027673;28;20020;-83
2023/09/19 14:26:49;;;;;;;1.13;1.02;;;20.30;92.90;;;;;;5026987;28;20128;-82
2023/09/19 14:29:15;;;;;;;2.60;1.27;;;20.30;92.90;;;;;;5021915;28;20090;-82
2023/09/19 14:31:41;;;;;;;1.27;0.90;;;20.30;92.80;;;;;;5040479;28;20079;-84
2023/09/19 14:34:09;;;;;;;2.28;1.30;;;20.30;92.90;;;;;;5041274;28;20029;-83
2023/09/19 14:36:35;;;;;;;1.02;0.85;;;20.30;92.80;;;;;;5027706;28;20059;-83
2023/09/19 14:39:01;;;;;;;2.30;1.23;;;20.30;92.80;;;;;;5016897;28;20060;-84
2023/09/19 14:41:26;;;;;;;4.38;1.00;;;20.30;92.80;;;;;;5031044;28;20017;-83
2023/09/19 14:43:52;;;;;;;3.10;1.13;;;20.30;92.70;;;;;;5037389;28;20067;-82
2023/09/19 14:46:19;;;;;;;3.05;1.02;;;20.30;92.70;;;;;;5024330;28;20025;-85
2023/09/19 14:48:47;;;;;;;1.33;0.90;;;20.30;92.80;;;;;;5027336;28;20029;-83
2023/09/19 14:51:13;;;;;;;2.30;1.40;;;20.30;92.70;;;;;;5028109;28;20029;-84
2023/09/19 14:53:40;;;;;;;2.80;0.95;;;20.30;92.60;;;;;;5024129;28;20025;-83
2023/09/19 14:56:18;;;;;;;0.95;0.88;;;20.30;92.60;;;;;;5044148;28;20028;-82
2023/09/19 14:58:44;;;;;;;4.70;0.85;;;20.30;92.60;;;;;;5040082;28;20040;-83
2023/09/19 15:01:11;;;;;;;1.85;1.20;;;20.30;92.50;;;;;;5030923;28;20469;-83
2023/09/19 15:03:39;;;;;;;1.42;1.00;;;20.30;92.50;;;;;;5037444;28;20036;-83
2023/09/19 15:06:06;;;;;;;2.47;1.10;;;20.30;92.40;;;;;;5046542;28;20017;-83
2023/09/19 15:08:34;;;;;;;1.42;1.02;;;20.30;92.40;;;;;;5041553;28;20024;-88
2023/09/19 15:11:05;;;;;;;2.35;1.20;;;20.30;92.10;;;;;;5047988;28;20021;-83
2023/09/19 15:13:31;;;;;;;2.83;1.40;;;20.30;91.10;;;;;;5049187;28;20022;-82
2023/09/19 15:16:01;;;;;;;2.22;1.23;;;20.30;91.30;;;;;;5038219;28;20024;-83
2023/09/19 15:18:27;;;;;;;1.08;0.98;;;20.30;91.40;;;;;;5045976;28;20030;-82
2023/09/19 15:20:54;;;;;;;2.03;1.05;;;20.30;91.40;;;;;;5055032;28;20021;-84
2023/09/19 15:23:20;;;;;;;1.38;1.10;;;20.30;91.40;;;;;;5047783;28;20028;-83
2023/09/19 15:25:49;;;;;;;1.73;0.90;;;20.30;91.40;;;;;;5063047;28;20017;-82
2023/09/19 15:28:15;;;;;;;2.85;1.15;;;20.30;91.30;;;;;;5046228;28;20027;-83
2023/09/19 15:30:41;;;;;;;2.05;1.00;;;20.30;91.50;;;;;;5058909;28;20045;-83
2023/09/19 15:33:07;;;;;;;2.55;0.90;;;20.30;91.50;;;;;;5049693;28;20501;-83
2023/09/19 15:35:32;;;;;;;1.08;0.70;;;20.40;91.60;;;;;;5048024;28;20035;-83
2023/09/19 15:37:59;;;;;;;3.08;1.52;;;20.30;91.60;;;;;;5059927;28;20029;-82
2023/09/19 15:40:27;;;;;;;1.55;0.88;;;20.30;91.60;;;;;;5057382;28;20031;-85
2023/09/19 15:42:54;;;;;;;5.53;1.13;;;20.30;91.70;;;;;;5046976;28;20132;-83
2023/09/19 15:45:19;;;;;;;2.55;1.20;;;20.30;91.70;;;;;;5043411;28;20013;-83
2023/09/19 15:47:45;;;;;;;1.73;1.05;;;20.30;91.80;;;;;;5061108;28;20733;-82
2023/09/19 15:50:14;;;;;;;3.80;1.25;;;20.30;91.80;;;;;;5064029;28;20047;-83
2023/09/19 15:52:41;;;;;;;2.03;1.27;;;20.30;91.80;;;;;;5052238;28;20136;-84
2023/09/19 15:55:07;;;;;;;4.25;1.30;;;20.30;91.80;;;;;;5058061;28;20031;-82
2023/09/19 15:57:34;;;;;;;3.40;1.25;;;20.30;91.80;;;;;;5061326;28;20100;-83
2023/09/19 16:00:00;;;;;;;2.08;1.33;;;20.30;91.80;;;;;;5048203;28;20454;-83
2023/09/19 16:02:26;;;;;;;1.25;0.90;;;20.30;91.90;;;;;;5041280;28;20104;-83